sensor_id;sensor_type;location;lat;lon;timestamp;P1;durP1;ratioP1;P2;durP2;ratioP2
47309;SDS011;33046;52.270;6.832;2022-09-09T00:01:59;1.73;;;1.23;;
47309;SDS011;33046;52.270;6.832;2022-09-09T00:04:12;3.33;;;0.60;;
47309;SDS011;33046;52.270;6.832;2022-09-09T00:06:27;2.00;;;0.57;;
47309;SDS011;33046;52.270;6.832;2022-09-09T00:08:38;3.33;;;1.00;;
47309;SDS011;33046;52.270;6.832;2022-09-09T00:10:53;2.80;;;0.60;;
47309;SDS011;33046;52.270;6.832;2022-09-09T00:13:06;2.78;;;0.73;;
47309;SDS011;33046;52.270;6.832;2022-09-09T00:15:22;1.73;;;0.45;;
47309;SDS011;33046;52.270;6.832;2022-09-09T00:17:33;2.25;;;0.60;;
47309;SDS011;33046;52.270;6.832;2022-09-09T00:19:45;2.60;;;0.60;;
47309;SDS011;33046;52.270;6.832;2022-09-09T00:22:00;2.00;;;0.63;;
47309;SDS011;33046;52.270;6.832;2022-09-09T00:24:23;1.25;;;0.50;;
47309;SDS011;33046;52.270;6.832;2022-09-09T00:26:35;1.65;;;0.47;;
47309;SDS011;33046;52.270;6.832;2022-09-09T00:28:48;0.95;;;0.45;;
47309;SDS011;33046;52.270;6.832;2022-09-09T00:30:59;2.28;;;0.50;;
47309;SDS011;33046;52.270;6.832;2022-09-09T00:33:16;1.45;;;0.50;;
47309;SDS011;33046;52.270;6.832;2022-09-09T00:35:27;2.58;;;0.43;;
47309;SDS011;33046;52.270;6.832;2022-09-09T00:37:37;1.83;;;0.60;;
47309;SDS011;33046;52.270;6.832;2022-09-09T00:39:44;2.58;;;0.40;;
47309;SDS011;33046;52.270;6.832;2022-09-09T00:41:57;1.75;;;0.60;;
47309;SDS011;33046;52.270;6.832;2022-09-09T00:44:19;1.58;;;0.55;;
47309;SDS011;33046;52.270;6.832;2022-09-09T00:46:41;1.10;;;0.60;;
47309;SDS011;33046;52.270;6.832;2022-09-09T00:48:58;1.02;;;0.50;;
47309;SDS011;33046;52.270;6.832;2022-09-09T00:51:12;2.25;;;0.75;;
47309;SDS011;33046;52.270;6.832;2022-09-09T00:53:24;1.13;;;0.50;;
47309;SDS011;33046;52.270;6.832;2022-09-09T00:55:39;1.25;;;0.40;;
47309;SDS011;33046;52.270;6.832;2022-09-09T00:57:52;2.15;;;0.50;;
47309;SDS011;33046;52.270;6.832;2022-09-09T01:00:14;1.88;;;0.77;;
47309;SDS011;33046;52.270;6.832;2022-09-09T01:02:28;1.83;;;0.60;;
47309;SDS011;33046;52.270;6.832;2022-09-09T01:04:37;2.83;;;0.60;;
47309;SDS011;33046;52.270;6.832;2022-09-09T01:06:44;1.67;;;0.50;;
47309;SDS011;33046;52.270;6.832;2022-09-09T01:08:59;1.33;;;0.50;;
47309;SDS011;33046;52.270;6.832;2022-09-09T01:11:14;3.58;;;0.82;;
47309;SDS011;33046;52.270;6.832;2022-09-09T01:13:30;1.55;;;0.75;;
47309;SDS011;33046;52.270;6.832;2022-09-09T01:15:43;1.48;;;0.50;;
47309;SDS011;33046;52.270;6.832;2022-09-09T01:17:53;2.85;;;0.50;;
47309;SDS011;33046;52.270;6.832;2022-09-09T01:20:08;1.38;;;0.60;;
47309;SDS011;33046;52.270;6.832;2022-09-09T01:22:29;2.08;;;0.65;;
47309;SDS011;33046;52.270;6.832;2022-09-09T01:24:45;4.95;;;0.95;;
47309;SDS011;33046;52.270;6.832;2022-09-09T01:27:42;1.83;;;0.93;;
47309;SDS011;33046;52.270;6.832;2022-09-09T01:29:52;1.65;;;0.85;;
47309;SDS011;33046;52.270;6.832;2022-09-09T01:32:00;1.77;;;0.82;;
47309;SDS011;33046;52.270;6.832;2022-09-09T01:34:10;1.83;;;0.90;;
47309;SDS011;33046;52.270;6.832;2022-09-09T01:36:20;2.22;;;0.63;;
47309;SDS011;33046;52.270;6.832;2022-09-09T01:38:32;2.15;;;0.60;;
47309;SDS011;33046;52.270;6.832;2022-09-09T01:40:40;2.67;;;1.08;;
47309;SDS011;33046;52.270;6.832;2022-09-09T01:42:48;2.35;;;0.65;;
47309;SDS011;33046;52.270;6.832;2022-09-09T01:44:55;1.85;;;1.10;;
47309;SDS011;33046;52.270;6.832;2022-09-09T01:47:03;2.17;;;0.90;;
47309;SDS011;33046;52.270;6.832;2022-09-09T01:49:12;2.47;;;1.35;;
47309;SDS011;33046;52.270;6.832;2022-09-09T01:51:19;1.55;;;0.98;;
47309;SDS011;33046;52.270;6.832;2022-09-09T01:53:27;4.53;;;0.85;;
47309;SDS011;33046;52.270;6.832;2022-09-09T01:55:40;2.75;;;0.82;;
47309;SDS011;33046;52.270;6.832;2022-09-09T01:57:58;3.10;;;0.80;;
47309;SDS011;33046;52.270;6.832;2022-09-09T02:00:25;1.52;;;0.70;;
47309;SDS011;33046;52.270;6.832;2022-09-09T02:02:37;1.92;;;0.80;;
47309;SDS011;33046;52.270;6.832;2022-09-09T02:04:54;5.63;;;0.80;;
47309;SDS011;33046;52.270;6.832;2022-09-09T02:07:06;2.20;;;1.08;;
47309;SDS011;33046;52.270;6.832;2022-09-09T02:09:22;2.45;;;0.80;;
47309;SDS011;33046;52.270;6.832;2022-09-09T02:11:31;2.13;;;0.85;;
47309;SDS011;33046;52.270;6.832;2022-09-09T02:13:54;3.33;;;0.80;;
47309;SDS011;33046;52.270;6.832;2022-09-09T02:16:04;2.72;;;0.90;;
47309;SDS011;33046;52.270;6.832;2022-09-09T02:18:15;2.00;;;0.80;;
47309;SDS011;33046;52.270;6.832;2022-09-09T02:20:28;1.95;;;0.70;;
47309;SDS011;33046;52.270;6.832;2022-09-09T02:22:41;1.45;;;0.80;;
47309;SDS011;33046;52.270;6.832;2022-09-09T02:24:53;1.90;;;0.90;;
47309;SDS011;33046;52.270;6.832;2022-09-09T02:27:07;2.13;;;0.88;;
47309;SDS011;33046;52.270;6.832;2022-09-09T02:29:17;2.00;;;1.50;;
47309;SDS011;33046;52.270;6.832;2022-09-09T02:31:27;2.17;;;0.90;;
47309;SDS011;33046;52.270;6.832;2022-09-09T02:33:41;3.15;;;1.20;;
47309;SDS011;33046;52.270;6.832;2022-09-09T02:35:52;1.70;;;0.90;;
47309;SDS011;33046;52.270;6.832;2022-09-09T02:38:04;2.83;;;1.38;;
47309;SDS011;33046;52.270;6.832;2022-09-09T02:40:14;3.03;;;0.80;;
47309;SDS011;33046;52.270;6.832;2022-09-09T02:42:25;2.95;;;1.00;;
47309;SDS011;33046;52.270;6.832;2022-09-09T02:44:36;4.43;;;1.00;;
47309;SDS011;33046;52.270;6.832;2022-09-09T02:46:53;2.38;;;0.90;;
47309;SDS011;33046;52.270;6.832;2022-09-09T02:49:15;2.58;;;1.02;;
47309;SDS011;33046;52.270;6.832;2022-09-09T02:51:31;1.00;;;0.82;;
47309;SDS011;33046;52.270;6.832;2022-09-09T02:53:47;2.22;;;0.70;;
47309;SDS011;33046;52.270;6.832;2022-09-09T02:55:59;2.17;;;1.08;;
47309;SDS011;33046;52.270;6.832;2022-09-09T02:58:16;1.00;;;0.70;;
47309;SDS011;33046;52.270;6.832;2022-09-09T03:00:34;1.40;;;0.80;;
47309;SDS011;33046;52.270;6.832;2022-09-09T03:02:41;2.05;;;0.88;;
47309;SDS011;33046;52.270;6.832;2022-09-09T03:04:48;1.45;;;0.80;;
47309;SDS011;33046;52.270;6.832;2022-09-09T03:06:55;2.65;;;0.90;;
47309;SDS011;33046;52.270;6.832;2022-09-09T03:09:02;1.38;;;0.80;;
47309;SDS011;33046;52.270;6.832;2022-09-09T03:11:09;1.35;;;0.88;;
47309;SDS011;33046;52.270;6.832;2022-09-09T03:13:16;0.90;;;0.70;;
47309;SDS011;33046;52.270;6.832;2022-09-09T03:15:23;1.98;;;1.08;;
47309;SDS011;33046;52.270;6.832;2022-09-09T03:17:31;2.45;;;0.90;;
47309;SDS011;33046;52.270;6.832;2022-09-09T03:19:38;2.40;;;0.95;;
47309;SDS011;33046;52.270;6.832;2022-09-09T03:21:47;2.20;;;0.80;;
47309;SDS011;33046;52.270;6.832;2022-09-09T03:23:54;1.60;;;0.80;;
47309;SDS011;33046;52.270;6.832;2022-09-09T03:26:01;2.53;;;1.10;;
47309;SDS011;33046;52.270;6.832;2022-09-09T03:28:17;1.55;;;1.05;;
47309;SDS011;33046;52.270;6.832;2022-09-09T03:30:25;3.70;;;1.20;;
47309;SDS011;33046;52.270;6.832;2022-09-09T03:32:36;3.33;;;1.05;;
47309;SDS011;33046;52.270;6.832;2022-09-09T03:34:43;3.28;;;1.40;;
47309;SDS011;33046;52.270;6.832;2022-09-09T03:36:52;2.15;;;0.98;;
47309;SDS011;33046;52.270;6.832;2022-09-09T03:38:59;1.58;;;0.70;;
47309;SDS011;33046;52.270;6.832;2022-09-09T03:41:08;1.25;;;0.80;;
47309;SDS011;33046;52.270;6.832;2022-09-09T03:43:16;1.52;;;0.90;;
47309;SDS011;33046;52.270;6.832;2022-09-09T03:45:23;2.15;;;0.90;;
47309;SDS011;33046;52.270;6.832;2022-09-09T03:47:30;2.22;;;0.93;;
47309;SDS011;33046;52.270;6.832;2022-09-09T03:49:44;1.52;;;1.13;;
47309;SDS011;33046;52.270;6.832;2022-09-09T03:51:51;3.70;;;1.25;;
47309;SDS011;33046;52.270;6.832;2022-09-09T03:53:58;2.08;;;1.00;;
47309;SDS011;33046;52.270;6.832;2022-09-09T03:56:06;1.58;;;0.80;;
47309;SDS011;33046;52.270;6.832;2022-09-09T03:58:14;2.40;;;0.90;;
47309;SDS011;33046;52.270;6.832;2022-09-09T04:00:22;4.20;;;1.13;;
47309;SDS011;33046;52.270;6.832;2022-09-09T04:02:31;4.57;;;1.20;;
47309;SDS011;33046;52.270;6.832;2022-09-09T04:04:38;3.15;;;1.30;;
47309;SDS011;33046;52.270;6.832;2022-09-09T04:06:46;2.72;;;0.90;;
47309;SDS011;33046;52.270;6.832;2022-09-09T04:08:53;2.42;;;1.10;;
47309;SDS011;33046;52.270;6.832;2022-09-09T04:11:00;3.88;;;0.90;;
47309;SDS011;33046;52.270;6.832;2022-09-09T04:13:08;1.73;;;1.05;;
47309;SDS011;33046;52.270;6.832;2022-09-09T04:15:15;1.55;;;0.80;;
47309;SDS011;33046;52.270;6.832;2022-09-09T04:17:22;1.45;;;1.20;;
47309;SDS011;33046;52.270;6.832;2022-09-09T04:19:29;3.92;;;1.30;;
47309;SDS011;33046;52.270;6.832;2022-09-09T04:21:36;3.63;;;1.25;;
47309;SDS011;33046;52.270;6.832;2022-09-09T04:23:44;3.00;;;1.23;;
47309;SDS011;33046;52.270;6.832;2022-09-09T04:25:52;1.83;;;1.10;;
47309;SDS011;33046;52.270;6.832;2022-09-09T04:28:00;1.63;;;1.17;;
47309;SDS011;33046;52.270;6.832;2022-09-09T04:30:08;2.05;;;1.10;;
47309;SDS011;33046;52.270;6.832;2022-09-09T04:32:16;3.40;;;1.42;;
47309;SDS011;33046;52.270;6.832;2022-09-09T04:34:23;8.43;;;1.65;;
47309;SDS011;33046;52.270;6.832;2022-09-09T04:36:32;2.65;;;1.38;;
47309;SDS011;33046;52.270;6.832;2022-09-09T04:38:42;3.72;;;1.30;;
47309;SDS011;33046;52.270;6.832;2022-09-09T04:40:50;2.15;;;1.45;;
47309;SDS011;33046;52.270;6.832;2022-09-09T04:42:57;2.55;;;1.30;;
47309;SDS011;33046;52.270;6.832;2022-09-09T04:45:05;4.35;;;2.10;;
47309;SDS011;33046;52.270;6.832;2022-09-09T04:47:12;2.63;;;1.33;;
47309;SDS011;33046;52.270;6.832;2022-09-09T04:49:19;4.20;;;2.15;;
47309;SDS011;33046;52.270;6.832;2022-09-09T04:51:26;5.03;;;1.48;;
47309;SDS011;33046;52.270;6.832;2022-09-09T04:53:33;2.78;;;1.50;;
47309;SDS011;33046;52.270;6.832;2022-09-09T04:55:40;3.88;;;1.58;;
47309;SDS011;33046;52.270;6.832;2022-09-09T04:57:48;3.47;;;1.90;;
47309;SDS011;33046;52.270;6.832;2022-09-09T04:59:55;5.82;;;1.65;;
47309;SDS011;33046;52.270;6.832;2022-09-09T05:02:02;2.42;;;1.88;;
47309;SDS011;33046;52.270;6.832;2022-09-09T05:04:09;3.53;;;1.50;;
47309;SDS011;33046;52.270;6.832;2022-09-09T05:06:16;2.80;;;1.95;;
47309;SDS011;33046;52.270;6.832;2022-09-09T05:08:26;5.60;;;2.47;;
47309;SDS011;33046;52.270;6.832;2022-09-09T05:10:33;3.85;;;1.98;;
47309;SDS011;33046;52.270;6.832;2022-09-09T05:12:52;2.95;;;1.50;;
47309;SDS011;33046;52.270;6.832;2022-09-09T05:15:02;3.50;;;1.80;;
47309;SDS011;33046;52.270;6.832;2022-09-09T05:17:10;3.70;;;1.73;;
47309;SDS011;33046;52.270;6.832;2022-09-09T05:19:18;3.28;;;2.80;;
47309;SDS011;33046;52.270;6.832;2022-09-09T05:21:29;4.00;;;1.83;;
47309;SDS011;33046;52.270;6.832;2022-09-09T05:23:35;6.30;;;2.20;;
47309;SDS011;33046;52.270;6.832;2022-09-09T05:25:43;4.75;;;1.88;;
47309;SDS011;33046;52.270;6.832;2022-09-09T05:27:50;3.58;;;1.70;;
47309;SDS011;33046;52.270;6.832;2022-09-09T05:29:58;3.20;;;2.00;;
47309;SDS011;33046;52.270;6.832;2022-09-09T05:32:05;3.22;;;1.95;;
47309;SDS011;33046;52.270;6.832;2022-09-09T05:34:14;5.45;;;2.70;;
47309;SDS011;33046;52.270;6.832;2022-09-09T05:36:21;4.35;;;2.15;;
47309;SDS011;33046;52.270;6.832;2022-09-09T05:38:33;2.95;;;1.92;;
47309;SDS011;33046;52.270;6.832;2022-09-09T05:40:46;2.95;;;1.83;;
47309;SDS011;33046;52.270;6.832;2022-09-09T05:42:53;4.88;;;2.00;;
47309;SDS011;33046;52.270;6.832;2022-09-09T05:45:02;4.47;;;1.70;;
47309;SDS011;33046;52.270;6.832;2022-09-09T05:47:09;6.57;;;2.65;;
47309;SDS011;33046;52.270;6.832;2022-09-09T05:49:16;4.55;;;2.10;;
47309;SDS011;33046;52.270;6.832;2022-09-09T05:51:24;4.60;;;1.73;;
47309;SDS011;33046;52.270;6.832;2022-09-09T05:53:34;3.00;;;1.58;;
47309;SDS011;33046;52.270;6.832;2022-09-09T05:55:41;5.55;;;2.03;;
47309;SDS011;33046;52.270;6.832;2022-09-09T05:57:49;2.83;;;1.45;;
47309;SDS011;33046;52.270;6.832;2022-09-09T05:59:56;3.22;;;1.73;;
47309;SDS011;33046;52.270;6.832;2022-09-09T06:02:05;3.58;;;1.50;;
47309;SDS011;33046;52.270;6.832;2022-09-09T06:04:15;4.55;;;2.00;;
47309;SDS011;33046;52.270;6.832;2022-09-09T06:06:22;5.47;;;2.00;;
47309;SDS011;33046;52.270;6.832;2022-09-09T06:08:30;4.18;;;2.42;;
47309;SDS011;33046;52.270;6.832;2022-09-09T06:10:37;5.22;;;1.98;;
47309;SDS011;33046;52.270;6.832;2022-09-09T06:12:44;7.10;;;2.10;;
47309;SDS011;33046;52.270;6.832;2022-09-09T06:14:51;2.75;;;2.13;;
47309;SDS011;33046;52.270;6.832;2022-09-09T06:16:58;5.05;;;1.50;;
47309;SDS011;33046;52.270;6.832;2022-09-09T06:19:09;5.68;;;1.73;;
47309;SDS011;33046;52.270;6.832;2022-09-09T06:21:17;3.47;;;1.63;;
47309;SDS011;33046;52.270;6.832;2022-09-09T06:23:26;7.03;;;2.03;;
47309;SDS011;33046;52.270;6.832;2022-09-09T06:25:33;8.20;;;1.55;;
47309;SDS011;33046;52.270;6.832;2022-09-09T06:27:41;7.20;;;1.98;;
47309;SDS011;33046;52.270;6.832;2022-09-09T06:29:49;5.65;;;1.42;;
47309;SDS011;33046;52.270;6.832;2022-09-09T06:31:56;3.72;;;2.05;;
47309;SDS011;33046;52.270;6.832;2022-09-09T06:34:06;4.30;;;1.40;;
47309;SDS011;33046;52.270;6.832;2022-09-09T06:36:19;4.80;;;1.25;;
47309;SDS011;33046;52.270;6.832;2022-09-09T06:38:27;5.07;;;1.38;;
47309;SDS011;33046;52.270;6.832;2022-09-09T06:40:34;4.43;;;1.15;;
47309;SDS011;33046;52.270;6.832;2022-09-09T06:42:40;4.50;;;1.08;;
47309;SDS011;33046;52.270;6.832;2022-09-09T06:45:00;8.88;;;1.83;;
47309;SDS011;33046;52.270;6.832;2022-09-09T06:47:21;3.92;;;1.35;;
47309;SDS011;33046;52.270;6.832;2022-09-09T06:49:29;3.03;;;1.33;;
47309;SDS011;33046;52.270;6.832;2022-09-09T06:51:37;5.28;;;1.23;;
47309;SDS011;33046;52.270;6.832;2022-09-09T06:53:45;5.53;;;1.48;;
47309;SDS011;33046;52.270;6.832;2022-09-09T06:55:53;3.78;;;1.08;;
47309;SDS011;33046;52.270;6.832;2022-09-09T06:58:01;5.75;;;1.27;;
47309;SDS011;33046;52.270;6.832;2022-09-09T07:00:08;4.45;;;1.08;;
47309;SDS011;33046;52.270;6.832;2022-09-09T07:02:16;4.20;;;1.00;;
47309;SDS011;33046;52.270;6.832;2022-09-09T07:04:24;5.25;;;1.38;;
47309;SDS011;33046;52.270;6.832;2022-09-09T07:06:31;5.03;;;1.08;;
47309;SDS011;33046;52.270;6.832;2022-09-09T07:08:42;4.13;;;1.08;;
47309;SDS011;33046;52.270;6.832;2022-09-09T07:10:54;3.58;;;1.52;;
47309;SDS011;33046;52.270;6.832;2022-09-09T07:13:07;5.32;;;1.40;;
47309;SDS011;33046;52.270;6.832;2022-09-09T07:15:14;5.47;;;1.10;;
47309;SDS011;33046;52.270;6.832;2022-09-09T07:17:23;4.40;;;0.93;;
47309;SDS011;33046;52.270;6.832;2022-09-09T07:19:30;5.53;;;1.10;;
47309;SDS011;33046;52.270;6.832;2022-09-09T07:21:37;4.68;;;0.93;;
47309;SDS011;33046;52.270;6.832;2022-09-09T07:23:45;6.97;;;1.52;;
47309;SDS011;33046;52.270;6.832;2022-09-09T07:25:52;6.43;;;0.80;;
47309;SDS011;33046;52.270;6.832;2022-09-09T07:28:00;8.05;;;1.65;;
47309;SDS011;33046;52.270;6.832;2022-09-09T07:30:08;6.15;;;1.20;;
47309;SDS011;33046;52.270;6.832;2022-09-09T07:32:15;5.03;;;1.75;;
47309;SDS011;33046;52.270;6.832;2022-09-09T07:34:22;2.83;;;0.80;;
47309;SDS011;33046;52.270;6.832;2022-09-09T07:36:31;4.60;;;1.00;;
47309;SDS011;33046;52.270;6.832;2022-09-09T07:38:40;4.85;;;0.80;;
47309;SDS011;33046;52.270;6.832;2022-09-09T07:40:49;5.05;;;1.17;;
47309;SDS011;33046;52.270;6.832;2022-09-09T07:42:56;11.75;;;1.73;;
47309;SDS011;33046;52.270;6.832;2022-09-09T07:45:03;5.85;;;1.65;;
47309;SDS011;33046;52.270;6.832;2022-09-09T07:47:12;4.30;;;1.20;;
47309;SDS011;33046;52.270;6.832;2022-09-09T07:49:23;6.53;;;2.50;;
47309;SDS011;33046;52.270;6.832;2022-09-09T07:51:34;4.80;;;1.15;;
47309;SDS011;33046;52.270;6.832;2022-09-09T07:53:43;8.02;;;0.98;;
47309;SDS011;33046;52.270;6.832;2022-09-09T07:55:52;4.28;;;1.00;;
47309;SDS011;33046;52.270;6.832;2022-09-09T07:57:59;5.53;;;1.00;;
47309;SDS011;33046;52.270;6.832;2022-09-09T08:00:06;8.25;;;0.95;;
47309;SDS011;33046;52.270;6.832;2022-09-09T08:02:22;6.22;;;0.80;;
47309;SDS011;33046;52.270;6.832;2022-09-09T08:04:29;3.05;;;0.80;;
47309;SDS011;33046;52.270;6.832;2022-09-09T08:06:37;4.03;;;0.80;;
47309;SDS011;33046;52.270;6.832;2022-09-09T08:08:49;4.15;;;0.85;;
47309;SDS011;33046;52.270;6.832;2022-09-09T08:11:09;4.22;;;0.80;;
47309;SDS011;33046;52.270;6.832;2022-09-09T08:13:18;5.90;;;1.30;;
47309;SDS011;33046;52.270;6.832;2022-09-09T08:15:26;5.82;;;0.95;;
47309;SDS011;33046;52.270;6.832;2022-09-09T08:17:33;2.88;;;1.00;;
47309;SDS011;33046;52.270;6.832;2022-09-09T08:19:44;5.97;;;1.02;;
47309;SDS011;33046;52.270;6.832;2022-09-09T08:21:59;7.88;;;0.88;;
47309;SDS011;33046;52.270;6.832;2022-09-09T08:24:06;5.15;;;1.25;;
47309;SDS011;33046;52.270;6.832;2022-09-09T08:26:16;4.25;;;1.20;;
47309;SDS011;33046;52.270;6.832;2022-09-09T08:28:24;5.93;;;0.95;;
47309;SDS011;33046;52.270;6.832;2022-09-09T08:30:32;3.70;;;0.80;;
47309;SDS011;33046;52.270;6.832;2022-09-09T08:32:39;7.22;;;2.15;;
47309;SDS011;33046;52.270;6.832;2022-09-09T08:34:46;4.25;;;1.00;;
47309;SDS011;33046;52.270;6.832;2022-09-09T08:36:58;10.82;;;1.08;;
47309;SDS011;33046;52.270;6.832;2022-09-09T08:39:12;4.10;;;1.10;;
47309;SDS011;33046;52.270;6.832;2022-09-09T08:41:32;11.77;;;1.00;;
47309;SDS011;33046;52.270;6.832;2022-09-09T08:44:19;4.70;;;1.10;;
47309;SDS011;33046;52.270;6.832;2022-09-09T08:46:33;5.18;;;0.70;;
47309;SDS011;33046;52.270;6.832;2022-09-09T08:48:50;6.57;;;1.00;;
47309;SDS011;33046;52.270;6.832;2022-09-09T08:51:02;5.47;;;1.13;;
47309;SDS011;33046;52.270;6.832;2022-09-09T08:53:15;6.70;;;0.90;;
47309;SDS011;33046;52.270;6.832;2022-09-09T08:55:28;3.97;;;0.70;;
47309;SDS011;33046;52.270;6.832;2022-09-09T08:57:44;7.50;;;1.10;;
47309;SDS011;33046;52.270;6.832;2022-09-09T08:59:52;7.60;;;0.90;;
47309;SDS011;33046;52.270;6.832;2022-09-09T09:02:01;4.68;;;1.05;;
47309;SDS011;33046;52.270;6.832;2022-09-09T09:04:29;3.90;;;1.15;;
47309;SDS011;33046;52.270;6.832;2022-09-09T09:06:46;7.28;;;0.95;;
47309;SDS011;33046;52.270;6.832;2022-09-09T09:09:01;4.18;;;0.90;;
47309;SDS011;33046;52.270;6.832;2022-09-09T09:11:12;7.13;;;1.08;;
47309;SDS011;33046;52.270;6.832;2022-09-09T09:13:22;4.90;;;1.77;;
47309;SDS011;33046;52.270;6.832;2022-09-09T09:15:38;5.13;;;1.25;;
47309;SDS011;33046;52.270;6.832;2022-09-09T09:17:48;4.80;;;0.88;;
47309;SDS011;33046;52.270;6.832;2022-09-09T09:19:56;5.63;;;1.00;;
47309;SDS011;33046;52.270;6.832;2022-09-09T09:22:05;5.15;;;0.93;;
47309;SDS011;33046;52.270;6.832;2022-09-09T09:24:19;9.20;;;1.40;;
47309;SDS011;33046;52.270;6.832;2022-09-09T09:26:30;4.10;;;1.13;;
47309;SDS011;33046;52.270;6.832;2022-09-09T09:28:40;4.85;;;1.30;;
47309;SDS011;33046;52.270;6.832;2022-09-09T09:30:53;5.45;;;0.68;;
47309;SDS011;33046;52.270;6.832;2022-09-09T09:33:02;6.75;;;1.67;;
47309;SDS011;33046;52.270;6.832;2022-09-09T09:35:15;4.68;;;0.60;;
47309;SDS011;33046;52.270;6.832;2022-09-09T09:37:23;6.70;;;0.93;;
47309;SDS011;33046;52.270;6.832;2022-09-09T09:42:07;7.97;;;1.65;;
47309;SDS011;33046;52.270;6.832;2022-09-09T09:44:23;2.85;;;0.60;;
47309;SDS011;33046;52.270;6.832;2022-09-09T09:46:32;3.78;;;0.60;;
47309;SDS011;33046;52.270;6.832;2022-09-09T09:48:55;5.78;;;1.42;;
47309;SDS011;33046;52.270;6.832;2022-09-09T09:51:04;7.47;;;0.88;;
47309;SDS011;33046;52.270;6.832;2022-09-09T09:53:17;5.22;;;1.58;;
47309;SDS011;33046;52.270;6.832;2022-09-09T09:55:28;8.95;;;1.23;;
47309;SDS011;33046;52.270;6.832;2022-09-09T09:57:37;4.47;;;0.57;;
47309;SDS011;33046;52.270;6.832;2022-09-09T09:59:59;4.80;;;0.70;;
47309;SDS011;33046;52.270;6.832;2022-09-09T10:02:16;1.98;;;0.45;;
47309;SDS011;33046;52.270;6.832;2022-09-09T10:04:29;3.30;;;0.65;;
47309;SDS011;33046;52.270;6.832;2022-09-09T10:06:36;4.75;;;0.80;;
47309;SDS011;33046;52.270;6.832;2022-09-09T10:08:44;4.53;;;1.15;;
47309;SDS011;33046;52.270;6.832;2022-09-09T10:10:55;5.82;;;0.95;;
47309;SDS011;33046;52.270;6.832;2022-09-09T10:13:14;3.72;;;0.50;;
47309;SDS011;33046;52.270;6.832;2022-09-09T10:15:29;2.83;;;0.50;;
47309;SDS011;33046;52.270;6.832;2022-09-09T10:17:43;4.20;;;1.05;;
47309;SDS011;33046;52.270;6.832;2022-09-09T10:20:04;2.78;;;0.50;;
47309;SDS011;33046;52.270;6.832;2022-09-09T10:22:25;4.45;;;0.98;;
47309;SDS011;33046;52.270;6.832;2022-09-09T10:24:48;3.08;;;0.50;;
47309;SDS011;33046;52.270;6.832;2022-09-09T10:27:22;5.00;;;0.80;;
47309;SDS011;33046;52.270;6.832;2022-09-09T10:29:43;3.63;;;0.50;;
47309;SDS011;33046;52.270;6.832;2022-09-09T10:32:04;4.25;;;0.47;;
47309;SDS011;33046;52.270;6.832;2022-09-09T10:34:22;7.13;;;0.50;;
47309;SDS011;33046;52.270;6.832;2022-09-09T10:36:44;2.83;;;0.47;;
47309;SDS011;33046;52.270;6.832;2022-09-09T10:38:57;4.68;;;1.17;;
47309;SDS011;33046;52.270;6.832;2022-09-09T10:41:18;2.90;;;0.55;;
47309;SDS011;33046;52.270;6.832;2022-09-09T10:43:33;6.72;;;1.13;;
47309;SDS011;33046;52.270;6.832;2022-09-09T10:46:03;3.83;;;0.60;;
47309;SDS011;33046;52.270;6.832;2022-09-09T10:48:30;3.72;;;0.52;;
47309;SDS011;33046;52.270;6.832;2022-09-09T10:50:54;2.85;;;0.50;;
47309;SDS011;33046;52.270;6.832;2022-09-09T10:53:12;2.28;;;0.50;;
47309;SDS011;33046;52.270;6.832;2022-09-09T10:55:26;2.85;;;0.73;;
47309;SDS011;33046;52.270;6.832;2022-09-09T10:57:40;3.33;;;1.02;;
47309;SDS011;33046;52.270;6.832;2022-09-09T10:59:50;11.32;;;2.17;;
47309;SDS011;33046;52.270;6.832;2022-09-09T11:02:02;5.50;;;0.98;;
47309;SDS011;33046;52.270;6.832;2022-09-09T11:04:19;3.60;;;0.50;;
47309;SDS011;33046;52.270;6.832;2022-09-09T11:06:32;6.38;;;1.58;;
47309;SDS011;33046;52.270;6.832;2022-09-09T11:08:44;5.68;;;0.50;;
47309;SDS011;33046;52.270;6.832;2022-09-09T11:10:53;2.88;;;0.50;;
47309;SDS011;33046;52.270;6.832;2022-09-09T11:13:05;4.63;;;0.98;;
47309;SDS011;33046;52.270;6.832;2022-09-09T11:17:28;3.17;;;0.50;;
47309;SDS011;33046;52.270;6.832;2022-09-09T11:19:43;4.18;;;0.40;;
47309;SDS011;33046;52.270;6.832;2022-09-09T11:21:50;2.58;;;0.40;;
47309;SDS011;33046;52.270;6.832;2022-09-09T11:23:59;7.40;;;0.52;;
47309;SDS011;33046;52.270;6.832;2022-09-09T11:26:11;2.47;;;0.50;;
47309;SDS011;33046;52.270;6.832;2022-09-09T11:28:26;3.22;;;0.57;;
47309;SDS011;33046;52.270;6.832;2022-09-09T11:30:45;3.47;;;0.40;;
47309;SDS011;33046;52.270;6.832;2022-09-09T11:33:16;3.67;;;0.60;;
47309;SDS011;33046;52.270;6.832;2022-09-09T11:35:38;4.03;;;0.55;;
47309;SDS011;33046;52.270;6.832;2022-09-09T11:40:32;2.45;;;0.50;;
47309;SDS011;33046;52.270;6.832;2022-09-09T11:42:39;2.47;;;0.40;;
47309;SDS011;33046;52.270;6.832;2022-09-09T11:44:46;4.22;;;1.05;;
47309;SDS011;33046;52.270;6.832;2022-09-09T11:46:53;4.18;;;0.50;;
47309;SDS011;33046;52.270;6.832;2022-09-09T11:49:01;2.42;;;0.57;;
47309;SDS011;33046;52.270;6.832;2022-09-09T11:51:11;5.10;;;0.70;;
47309;SDS011;33046;52.270;6.832;2022-09-09T11:55:29;4.07;;;1.73;;
47309;SDS011;33046;52.270;6.832;2022-09-09T11:57:37;2.42;;;0.30;;
47309;SDS011;33046;52.270;6.832;2022-09-09T11:59:49;3.75;;;0.47;;
47309;SDS011;33046;52.270;6.832;2022-09-09T12:01:57;2.78;;;0.98;;
47309;SDS011;33046;52.270;6.832;2022-09-09T12:04:13;4.43;;;0.40;;
47309;SDS011;33046;52.270;6.832;2022-09-09T12:06:29;9.43;;;0.85;;
47309;SDS011;33046;52.270;6.832;2022-09-09T12:08:37;4.05;;;0.93;;
47309;SDS011;33046;52.270;6.832;2022-09-09T12:10:52;3.70;;;1.10;;
47309;SDS011;33046;52.270;6.832;2022-09-09T12:13:16;3.35;;;0.40;;
47309;SDS011;33046;52.270;6.832;2022-09-09T12:17:36;2.55;;;0.60;;
47309;SDS011;33046;52.270;6.832;2022-09-09T12:19:48;1.83;;;0.40;;
47309;SDS011;33046;52.270;6.832;2022-09-09T12:22:07;3.55;;;0.70;;
47309;SDS011;33046;52.270;6.832;2022-09-09T12:24:24;5.00;;;0.63;;
47309;SDS011;33046;52.270;6.832;2022-09-09T12:26:37;3.90;;;0.65;;
47309;SDS011;33046;52.270;6.832;2022-09-09T12:28:51;4.38;;;0.40;;
47309;SDS011;33046;52.270;6.832;2022-09-09T12:31:05;3.55;;;0.50;;
47309;SDS011;33046;52.270;6.832;2022-09-09T12:33:16;5.55;;;0.70;;
47309;SDS011;33046;52.270;6.832;2022-09-09T12:35:25;3.00;;;0.63;;
47309;SDS011;33046;52.270;6.832;2022-09-09T12:37:36;3.78;;;0.50;;
47309;SDS011;33046;52.270;6.832;2022-09-09T12:39:47;1.95;;;0.35;;
47309;SDS011;33046;52.270;6.832;2022-09-09T12:41:58;5.22;;;0.40;;
47309;SDS011;33046;52.270;6.832;2022-09-09T12:44:05;3.60;;;0.40;;
47309;SDS011;33046;52.270;6.832;2022-09-09T12:46:16;2.30;;;0.65;;
47309;SDS011;33046;52.270;6.832;2022-09-09T12:48:30;4.03;;;0.40;;
47309;SDS011;33046;52.270;6.832;2022-09-09T12:50:43;2.42;;;0.40;;
47309;SDS011;33046;52.270;6.832;2022-09-09T12:52:54;2.78;;;0.43;;
47309;SDS011;33046;52.270;6.832;2022-09-09T12:55:04;2.05;;;0.40;;
47309;SDS011;33046;52.270;6.832;2022-09-09T12:57:12;2.58;;;0.60;;
47309;SDS011;33046;52.270;6.832;2022-09-09T12:59:22;3.10;;;0.50;;
47309;SDS011;33046;52.270;6.832;2022-09-09T13:01:31;2.03;;;0.50;;
47309;SDS011;33046;52.270;6.832;2022-09-09T13:03:42;2.72;;;0.52;;
47309;SDS011;33046;52.270;6.832;2022-09-09T13:05:49;2.65;;;0.50;;
47309;SDS011;33046;52.270;6.832;2022-09-09T13:08:02;4.53;;;0.40;;
47309;SDS011;33046;52.270;6.832;2022-09-09T13:10:10;2.03;;;0.30;;
47309;SDS011;33046;52.270;6.832;2022-09-09T13:12:30;4.32;;;0.40;;
47309;SDS011;33046;52.270;6.832;2022-09-09T13:14:37;3.80;;;0.80;;
47309;SDS011;33046;52.270;6.832;2022-09-09T13:16:53;1.50;;;0.20;;
47309;SDS011;33046;52.270;6.832;2022-09-09T13:19:05;3.35;;;0.80;;
47309;SDS011;33046;52.270;6.832;2022-09-09T13:21:14;3.67;;;1.30;;
47309;SDS011;33046;52.270;6.832;2022-09-09T13:23:22;2.53;;;1.33;;
47309;SDS011;33046;52.270;6.832;2022-09-09T13:25:33;1.83;;;0.40;;